createdAt,value
2022-10-05T00:01:57.068Z,2.58
2022-10-05T00:04:35.411Z,2.50
2022-10-05T00:07:25.119Z,2.47
2022-10-05T00:10:04.508Z,2.97
2022-10-05T00:12:43.960Z,2.60
2022-10-05T00:15:15.344Z,2.53
2022-10-05T00:17:53.231Z,2.47
2022-10-05T00:20:32.167Z,2.80
2022-10-05T00:23:04.347Z,2.70
2022-10-05T00:25:44.633Z,2.70
2022-10-05T00:28:33.384Z,2.42
2022-10-05T00:31:25.149Z,2.45
2022-10-05T00:33:56.606Z,2.50
2022-10-05T00:36:33.582Z,2.38
2022-10-05T00:39:13.210Z,2.70
2022-10-05T00:41:51.648Z,2.70
2022-10-05T00:44:34.047Z,2.83
2022-10-05T00:47:12.457Z,2.55
2022-10-05T00:49:47.682Z,2.55
2022-10-05T00:52:37.774Z,2.53
2022-10-05T00:55:36.601Z,2.80
2022-10-05T00:58:49.645Z,2.40
2022-10-05T01:01:33.184Z,2.67
2022-10-05T01:04:21.390Z,2.83
2022-10-05T01:07:13.718Z,2.78
2022-10-05T01:10:17.028Z,2.72
2022-10-05T01:13:08.382Z,2.47
2022-10-05T01:15:54.548Z,2.80
2022-10-05T01:18:33.177Z,3.00
2022-10-05T01:21:17.133Z,2.85
2022-10-05T01:24:13.701Z,2.60
2022-10-05T01:27:40.338Z,2.55
2022-10-05T01:30:26.999Z,2.30
2022-10-05T01:33:09.472Z,2.50
2022-10-05T01:36:14.519Z,2.53
2022-10-05T01:38:59.522Z,2.67
2022-10-05T01:41:35.560Z,2.58
2022-10-05T01:44:27.133Z,2.70
2022-10-05T01:47:38.462Z,2.42
2022-10-05T01:50:26.426Z,2.40
2022-10-05T01:53:08.828Z,2.60
2022-10-05T01:55:43.106Z,2.40
2022-10-05T01:58:34.415Z,2.53
2022-10-05T02:01:30.761Z,2.53
2022-10-05T02:05:01.510Z,2.38
2022-10-05T02:08:04.902Z,2.60
2022-10-05T02:10:55.221Z,2.50
2022-10-05T02:14:04.196Z,2.60
2022-10-05T02:16:50.572Z,2.63
2022-10-05T02:19:31.478Z,2.42
2022-10-05T02:22:19.462Z,2.55
2022-10-05T02:25:02.010Z,2.70
2022-10-05T02:28:13.107Z,2.75
2022-10-05T02:31:03.661Z,2.70
2022-10-05T02:33:39.862Z,2.90
2022-10-05T02:36:38.254Z,2.80
2022-10-05T02:39:34.583Z,2.30
2022-10-05T02:42:24.848Z,2.78
2022-10-05T02:45:23.474Z,2.83
2022-10-05T02:48:14.241Z,2.75
2022-10-05T02:50:53.675Z,2.80
2022-10-05T02:53:28.690Z,2.70
2022-10-05T02:56:22.409Z,2.78
2022-10-05T02:59:08.096Z,2.58
2022-10-05T03:01:52.780Z,2.50
2022-10-05T03:04:40.719Z,2.58
2022-10-05T03:07:36.912Z,2.67
2022-10-05T03:10:30.931Z,2.90
2022-10-05T03:13:35.594Z,2.70
2022-10-05T03:16:28.981Z,2.67
2022-10-05T03:19:33.279Z,2.72
2022-10-05T03:22:41.043Z,2.67
2022-10-05T03:25:35.990Z,2.60
2022-10-05T03:28:42.602Z,2.65
2022-10-05T03:31:16.066Z,2.50
2022-10-05T03:34:11.022Z,2.67
2022-10-05T03:37:00.647Z,2.47
2022-10-05T03:39:49.787Z,2.75
2022-10-05T03:42:32.508Z,2.70
2022-10-05T03:45:16.559Z,2.53
2022-10-05T03:48:01.258Z,2.78
2022-10-05T03:50:53.556Z,2.70
2022-10-05T03:53:35.336Z,2.60
2022-10-05T03:56:38.679Z,2.70
2022-10-05T03:59:33.019Z,2.60
2022-10-05T04:02:27.217Z,2.40
2022-10-05T04:05:16.017Z,2.65
2022-10-05T04:08:32.779Z,2.78
2022-10-05T04:11:20.591Z,2.60
2022-10-05T04:14:05.597Z,2.20
2022-10-05T04:17:12.410Z,2.40
2022-10-05T04:20:01.593Z,2.57
2022-10-05T04:22:46.489Z,2.47
2022-10-05T04:25:25.219Z,2.38
2022-10-05T04:28:12.093Z,2.47
2022-10-05T04:30:53.749Z,2.55
2022-10-05T04:33:26.673Z,2.65
2022-10-05T04:36:05.706Z,2.50
2022-10-05T04:38:38.661Z,2.80
2022-10-05T04:41:44.932Z,2.30
2022-10-05T04:44:50.448Z,2.45
2022-10-05T04:48:04.186Z,2.50
2022-10-05T04:51:01.502Z,2.43
2022-10-05T04:54:06.472Z,2.45
2022-10-05T04:56:50.671Z,2.47
2022-10-05T04:59:59.052Z,2.60
2022-10-05T05:03:00.435Z,2.25
2022-10-05T05:06:05.091Z,2.30
2022-10-05T05:09:04.236Z,2.45
2022-10-05T05:11:58.397Z,2.50
2022-10-05T05:14:58.613Z,2.35
2022-10-05T05:17:56.581Z,2.50
2022-10-05T05:20:42.455Z,2.47
2022-10-05T05:23:30.326Z,2.58
2022-10-05T05:26:09.376Z,2.40
2022-10-05T05:28:53.333Z,2.40
2022-10-05T05:31:56.687Z,2.55
2022-10-05T05:34:45.317Z,2.70
2022-10-05T05:37:37.583Z,2.40
2022-10-05T05:40:18.989Z,2.70
2022-10-05T05:42:55.939Z,2.53
2022-10-05T05:45:35.228Z,2.55
2022-10-05T05:48:38.055Z,2.75
2022-10-05T05:51:26.869Z,2.70
2022-10-05T05:54:21.233Z,2.45
2022-10-05T05:57:00.583Z,2.92
2022-10-05T05:59:44.738Z,2.53
2022-10-05T06:02:26.026Z,2.40
2022-10-05T06:05:32.543Z,2.15
2022-10-05T06:08:28.874Z,2.58
2022-10-05T06:11:20.905Z,2.15
2022-10-05T06:13:58.368Z,2.30
2022-10-05T06:16:48.175Z,2.47
2022-10-05T06:19:29.840Z,2.22
2022-10-05T06:22:22.326Z,2.38
2022-10-05T06:25:03.433Z,2.50
2022-10-05T06:27:38.765Z,2.15
2022-10-05T06:30:22.922Z,2.15
2022-10-05T06:33:36.546Z,2.22
2022-10-05T06:36:23.529Z,2.50
2022-10-05T06:39:09.458Z,2.25
2022-10-05T06:42:04.073Z,2.22
2022-10-05T06:45:38.755Z,2.20
2022-10-05T06:49:17.179Z,2.50
2022-10-05T06:52:03.802Z,2.22
2022-10-05T06:54:45.642Z,2.15
2022-10-05T06:57:36.886Z,2.33
2022-10-05T07:00:24.905Z,2.20
2022-10-05T07:03:22.281Z,2.17
2022-10-05T07:06:05.538Z,2.53
2022-10-05T07:09:02.702Z,2.35
2022-10-05T07:11:50.222Z,2.10
2022-10-05T07:14:43.448Z,2.30
2022-10-05T07:17:39.505Z,2.38
2022-10-05T07:20:25.342Z,2.17
2022-10-05T07:23:21.617Z,2.10
2022-10-05T07:26:03.397Z,2.17
2022-10-05T07:28:50.602Z,2.15
2022-10-05T07:31:56.972Z,2.03
2022-10-05T07:34:29.627Z,2.40
2022-10-05T07:37:28.545Z,1.95
2022-10-05T07:40:18.123Z,2.33
2022-10-05T07:43:10.671Z,2.60
2022-10-05T07:46:21.549Z,2.35
2022-10-05T07:49:34.665Z,2.40
2022-10-05T07:52:40.093Z,2.20
2022-10-05T07:58:23.313Z,2.10
2022-10-05T08:01:08.896Z,2.13
2022-10-05T08:03:49.999Z,2.13
2022-10-05T08:06:47.861Z,2.35
2022-10-05T08:09:45.638Z,2.33
2022-10-05T08:12:31.967Z,2.50
2022-10-05T08:15:28.079Z,2.13
2022-10-05T08:18:22.009Z,2.47
2022-10-05T08:21:00.326Z,2.30
2022-10-05T08:23:39.164Z,2.30
2022-10-05T08:26:59.604Z,2.38
2022-10-05T08:29:45.640Z,2.40
2022-10-05T08:32:31.232Z,3.50
2022-10-05T08:35:19.425Z,3.70
2022-10-05T08:37:50.434Z,3.45
2022-10-05T08:40:21.983Z,4.15
2022-10-05T08:43:27.508Z,3.90
2022-10-05T08:46:17.811Z,3.92
2022-10-05T08:48:57.249Z,3.38
2022-10-05T08:51:51.677Z,3.00
2022-10-05T08:54:37.106Z,3.13
2022-10-05T08:57:29.723Z,2.80
2022-10-05T09:00:07.138Z,2.72
2022-10-05T09:02:59.312Z,2.83
2022-10-05T09:05:39.078Z,2.63
2022-10-05T09:08:31.105Z,3.00
2022-10-05T09:11:24.289Z,2.88
2022-10-05T09:14:39.085Z,3.27
2022-10-05T09:17:10.555Z,3.53
2022-10-05T09:19:49.407Z,3.17
2022-10-05T09:22:30.387Z,3.05
2022-10-05T09:25:24.615Z,3.13
2022-10-05T09:28:03.076Z,2.60
2022-10-05T09:30:58.283Z,2.60
2022-10-05T09:34:12.104Z,2.78
2022-10-05T09:37:09.081Z,2.75
2022-10-05T09:39:51.771Z,3.03
2022-10-05T09:42:47.017Z,3.25
2022-10-05T09:45:41.450Z,3.10
2022-10-05T09:48:47.332Z,2.88
2022-10-05T09:51:40.334Z,2.80
2022-10-05T09:54:36.782Z,2.92
2022-10-05T09:57:35.938Z,2.90
2022-10-05T10:00:19.105Z,2.53
2022-10-05T10:03:35.278Z,2.30
2022-10-05T10:06:40.892Z,2.47
2022-10-05T10:09:38.681Z,2.50
2022-10-05T10:12:37.357Z,2.92
2022-10-05T10:15:26.977Z,2.83
2022-10-05T10:18:03.383Z,3.28
2022-10-05T10:20:33.652Z,2.70
2022-10-05T10:23:18.884Z,2.83
2022-10-05T10:26:04.926Z,2.92
2022-10-05T10:28:55.344Z,2.70
2022-10-05T10:31:51.040Z,2.50
2022-10-05T10:34:57.494Z,2.60
2022-10-05T10:37:52.955Z,2.38
2022-10-05T10:40:48.255Z,2.70
2022-10-05T10:43:37.030Z,2.60
2022-10-05T10:46:21.281Z,2.40
2022-10-05T10:49:16.978Z,2.60
2022-10-05T10:52:27.395Z,2.55
2022-10-05T10:55:26.106Z,2.28
2022-10-05T10:58:16.210Z,2.42
2022-10-05T11:01:31.036Z,2.70
2022-10-05T11:07:12.034Z,2.30
2022-10-05T11:10:01.187Z,2.45
2022-10-05T11:12:50.308Z,2.40
2022-10-05T11:16:00.735Z,2.40
2022-10-05T11:18:50.033Z,2.72
2022-10-05T11:21:40.784Z,2.53
2022-10-05T11:24:38.897Z,2.22
2022-10-05T11:27:34.256Z,2.60
2022-10-05T11:30:26.807Z,2.40
2022-10-05T11:33:34.431Z,2.10
2022-10-05T11:36:18.772Z,2.20
2022-10-05T11:39:23.446Z,2.22
2022-10-05T11:42:28.444Z,3.10
2022-10-05T11:45:36.203Z,3.38
2022-10-05T11:48:35.571Z,2.67
2022-10-05T11:51:27.898Z,2.70
2022-10-05T11:54:02.250Z,2.90
2022-10-05T11:57:00.847Z,2.47
2022-10-05T11:59:49.219Z,2.83
2022-10-05T12:02:43.701Z,2.70
2022-10-05T12:05:56.249Z,2.80
2022-10-05T12:08:44.331Z,2.70
2022-10-05T12:11:39.041Z,2.50
2022-10-05T12:14:50.067Z,2.70
2022-10-05T12:17:28.252Z,2.50
2022-10-05T12:20:15.665Z,2.70
2022-10-05T12:22:49.818Z,2.47
2022-10-05T12:25:30.155Z,2.38
2022-10-05T12:28:05.073Z,2.85
2022-10-05T12:30:51.344Z,2.63
2022-10-05T12:33:38.356Z,2.40
2022-10-05T12:36:21.180Z,2.10
2022-10-05T12:39:31.420Z,2.40
2022-10-05T12:42:07.890Z,2.70
2022-10-05T12:45:15.088Z,2.63
2022-10-05T12:48:12.478Z,3.65
2022-10-05T12:50:53.660Z,2.95
2022-10-05T12:54:02.336Z,3.50
2022-10-05T12:56:42.792Z,3.83
2022-10-05T12:59:34.233Z,3.78
2022-10-05T13:02:33.026Z,3.50
2022-10-05T13:05:24.940Z,3.67
2022-10-05T13:08:05.458Z,3.70
2022-10-05T13:10:45.600Z,3.92
2022-10-05T13:13:37.995Z,3.70
2022-10-05T13:16:23.647Z,3.60
2022-10-05T13:19:25.846Z,4.70
2022-10-05T13:22:25.374Z,3.88
2022-10-05T13:25:17.997Z,4.03
2022-10-05T13:28:31.470Z,3.88
2022-10-05T13:31:20.994Z,4.00
2022-10-05T13:34:05.784Z,4.00
2022-10-05T13:36:54.675Z,4.60
2022-10-05T13:40:03.182Z,4.78
2022-10-05T13:42:38.814Z,4.13
2022-10-05T13:45:22.607Z,4.65
2022-10-05T13:51:07.729Z,5.28
2022-10-05T13:53:59.273Z,4.70
2022-10-05T13:56:33.646Z,4.25
2022-10-05T13:59:31.256Z,4.13
2022-10-05T14:02:17.253Z,4.50
2022-10-05T14:04:54.022Z,3.95
2022-10-05T14:07:39.378Z,4.10
2022-10-05T14:10:36.601Z,4.30
2022-10-05T14:13:34.924Z,4.53
2022-10-05T14:16:26.397Z,5.57
2022-10-05T14:19:01.791Z,4.93
2022-10-05T14:21:57.565Z,4.63
2022-10-05T14:24:47.707Z,4.80
2022-10-05T14:27:26.298Z,4.55
2022-10-05T14:30:04.278Z,4.20
2022-10-05T14:32:44.586Z,4.15
2022-10-05T14:35:22.668Z,5.00
2022-10-05T14:37:58.973Z,4.32
2022-10-05T14:40:35.783Z,3.85
2022-10-05T14:43:18.735Z,3.78
2022-10-05T14:46:01.009Z,3.80
2022-10-05T14:48:41.129Z,4.72
2022-10-05T14:51:32.177Z,3.40
2022-10-05T14:54:15.011Z,4.15
2022-10-05T14:56:48.798Z,3.88
2022-10-05T15:00:04.200Z,5.80
2022-10-05T15:02:53.481Z,5.28
2022-10-05T15:05:59.398Z,5.50
2022-10-05T15:08:55.117Z,4.25
2022-10-05T15:12:00.208Z,4.90
2022-10-05T15:14:43.407Z,4.68
2022-10-05T15:17:27.666Z,4.88
2022-10-05T15:20:22.222Z,6.50
2022-10-05T15:23:24.923Z,6.00
2022-10-05T15:26:41.612Z,6.35
2022-10-05T15:29:15.221Z,6.78
2022-10-05T15:32:03.895Z,5.57
2022-10-05T15:34:50.206Z,6.55
2022-10-05T15:37:33.263Z,6.93
2022-10-05T15:40:17.656Z,6.35
2022-10-05T15:42:59.612Z,6.43
2022-10-05T15:45:36.619Z,6.95
2022-10-05T15:48:29.303Z,6.75
2022-10-05T15:51:15.578Z,6.75
2022-10-05T15:54:11.918Z,7.13
2022-10-05T15:56:53.735Z,6.97
2022-10-05T15:59:46.758Z,7.85
2022-10-05T16:02:29.648Z,6.75
2022-10-05T16:05:04.928Z,7.43
2022-10-05T16:08:02.249Z,7.25
2022-10-05T16:10:36.592Z,7.63
2022-10-05T16:13:20.217Z,7.63
2022-10-05T16:16:15.772Z,7.50
2022-10-05T16:18:58.472Z,7.35
2022-10-05T16:21:48.586Z,7.97
2022-10-05T16:24:35.662Z,6.72
2022-10-05T16:27:32.176Z,6.32
2022-10-05T16:30:16.748Z,6.22
2022-10-05T16:32:52.535Z,5.60
2022-10-05T16:35:47.969Z,5.80
2022-10-05T16:38:29.798Z,5.85
2022-10-05T16:41:16.762Z,5.93
2022-10-05T16:44:04.746Z,5.28
2022-10-05T16:46:43.635Z,5.72
2022-10-05T16:49:43.765Z,5.65
2022-10-05T16:52:20.440Z,5.63
2022-10-05T16:54:57.558Z,5.65
2022-10-05T16:57:27.911Z,5.78
2022-10-05T17:00:10.834Z,5.73
2022-10-05T17:03:17.454Z,5.22
2022-10-05T17:06:09.979Z,5.25
2022-10-05T17:08:56.301Z,5.75
2022-10-05T17:11:50.781Z,5.00
2022-10-05T17:14:39.796Z,4.85
2022-10-05T17:17:49.011Z,5.10
2022-10-05T17:20:28.450Z,4.90
2022-10-05T17:23:21.487Z,5.10
2022-10-05T17:26:33.446Z,4.90
2022-10-05T17:29:47.700Z,4.60
2022-10-05T17:32:20.286Z,4.65
2022-10-05T17:35:18.504Z,4.68
2022-10-05T17:38:20.268Z,4.82
2022-10-05T17:41:04.815Z,4.85
2022-10-05T17:43:42.987Z,4.53
2022-10-05T17:46:10.965Z,4.40
2022-10-05T17:49:02.444Z,4.18
2022-10-05T17:51:48.804Z,4.57
2022-10-05T17:55:16.849Z,4.65
2022-10-05T17:57:49.426Z,4.55
2022-10-05T18:00:34.936Z,4.40
2022-10-05T18:03:43.586Z,4.32
2022-10-05T18:06:26.497Z,5.00
2022-10-05T18:09:23.061Z,5.17
2022-10-05T18:12:12.314Z,4.50
2022-10-05T18:15:03.097Z,4.53
2022-10-05T18:17:51.543Z,4.35
2022-10-05T18:20:37.385Z,4.60
2022-10-05T18:23:09.901Z,4.82
2022-10-05T18:25:45.890Z,5.10
2022-10-05T18:28:35.258Z,5.50
2022-10-05T18:31:27.366Z,5.20
2022-10-05T18:34:18.196Z,5.30
2022-10-05T18:37:31.726Z,4.70
2022-10-05T18:40:13.227Z,4.75
2022-10-05T18:43:06.498Z,5.07
2022-10-05T18:45:49.016Z,5.10
2022-10-05T18:49:03.272Z,5.63
2022-10-05T18:52:00.480Z,4.97
2022-10-05T18:55:04.012Z,4.95
2022-10-05T18:57:53.410Z,4.97
2022-10-05T19:00:26.923Z,5.72
2022-10-05T19:03:05.369Z,5.32
2022-10-05T19:05:53.770Z,5.13
2022-10-05T19:08:39.143Z,5.57
2022-10-05T19:11:28.573Z,4.95
2022-10-05T19:14:23.020Z,5.97
2022-10-05T19:17:45.195Z,5.32
2022-10-05T19:20:22.505Z,5.72
2022-10-05T19:23:09.441Z,6.28
2022-10-05T19:25:48.756Z,5.68
2022-10-05T19:28:32.579Z,6.25
2022-10-05T19:34:03.646Z,6.03
2022-10-05T19:36:40.827Z,6.55
2022-10-05T19:39:36.169Z,5.95
2022-10-05T19:42:38.983Z,6.47
2022-10-05T19:45:26.485Z,6.28
2022-10-05T19:48:30.456Z,6.90
2022-10-05T19:51:05.568Z,6.32
2022-10-05T19:53:45.791Z,6.80
2022-10-05T19:56:41.603Z,7.38
2022-10-05T19:59:21.432Z,6.07
2022-10-05T20:01:57.792Z,7.60
2022-10-05T20:04:48.803Z,7.03
2022-10-05T20:07:21.771Z,6.93
2022-10-05T20:10:17.025Z,7.22
2022-10-05T20:12:56.527Z,6.32
2022-10-05T20:15:50.346Z,7.25
2022-10-05T20:18:55.669Z,6.97
2022-10-05T20:21:47.150Z,7.00
2022-10-05T20:24:21.898Z,7.57
2022-10-05T20:27:06.656Z,7.85
2022-10-05T20:29:44.198Z,8.02
2022-10-05T20:32:18.073Z,7.50
2022-10-05T20:34:55.541Z,7.35
2022-10-05T20:37:27.263Z,8.48
2022-10-05T20:40:00.601Z,8.23
2022-10-05T20:42:31.038Z,8.75
2022-10-05T20:45:04.825Z,8.38
2022-10-05T20:47:46.560Z,8.30
2022-10-05T20:50:16.245Z,8.27
2022-10-05T20:52:49.582Z,8.82
2022-10-05T20:55:20.798Z,8.30
2022-10-05T20:57:53.656Z,8.00
2022-10-05T21:00:23.916Z,8.23
2022-10-05T21:03:07.668Z,8.20
2022-10-05T21:05:41.486Z,8.75
2022-10-05T21:08:09.178Z,8.68
2022-10-05T21:10:44.733Z,8.32
2022-10-05T21:13:18.427Z,9.13
2022-10-05T21:15:51.682Z,8.65
2022-10-05T21:18:25.425Z,9.57
2022-10-05T21:20:59.879Z,8.90
2022-10-05T21:23:35.177Z,8.75
2022-10-05T21:26:07.940Z,9.05
2022-10-05T21:28:40.197Z,8.83
2022-10-05T21:31:09.267Z,8.85
2022-10-05T21:33:39.872Z,8.55
2022-10-05T21:36:15.765Z,9.57
2022-10-05T21:38:46.628Z,8.90
2022-10-05T21:41:15.050Z,9.10
2022-10-05T21:43:48.113Z,8.93
2022-10-05T21:46:20.271Z,9.07
2022-10-05T21:48:54.355Z,8.50
2022-10-05T21:51:27.159Z,8.93
2022-10-05T21:54:09.406Z,8.75
2022-10-05T21:56:43.773Z,8.77
2022-10-05T21:59:16.754Z,8.98
2022-10-05T22:01:52.382Z,8.35
2022-10-05T22:04:23.503Z,9.35
2022-10-05T22:06:59.612Z,9.05
2022-10-05T22:09:30.588Z,8.73
2022-10-05T22:12:01.153Z,8.75
2022-10-05T22:14:32.805Z,8.73
2022-10-05T22:17:04.012Z,8.73
2022-10-05T22:19:33.581Z,8.70
2022-10-05T22:22:13.673Z,9.57
2022-10-05T22:24:41.248Z,9.05
2022-10-05T22:27:11.646Z,9.05
2022-10-05T22:29:42.610Z,8.20
2022-10-05T22:32:15.696Z,9.25
2022-10-05T22:34:43.442Z,9.07
2022-10-05T22:37:13.109Z,9.15
2022-10-05T22:39:48.211Z,8.75
2022-10-05T22:42:15.909Z,8.45
2022-10-05T22:44:49.046Z,8.02
2022-10-05T22:47:27.549Z,8.82
2022-10-05T22:49:58.077Z,9.93
2022-10-05T22:52:31.481Z,9.68
2022-10-05T22:55:03.495Z,8.23
2022-10-05T22:57:41.397Z,8.68
2022-10-05T23:00:14.834Z,9.68
2022-10-05T23:02:50.232Z,9.45
2022-10-05T23:05:18.650Z,8.43
2022-10-05T23:07:48.755Z,8.60
2022-10-05T23:10:20.170Z,8.88
2022-10-05T23:13:00.701Z,8.50
2022-10-05T23:15:31.317Z,9.43
2022-10-05T23:18:04.719Z,8.48
2022-10-05T23:20:35.676Z,9.27
2022-10-05T23:23:08.631Z,9.18
2022-10-05T23:25:39.026Z,9.67
2022-10-05T23:28:15.004Z,9.05
2022-10-05T23:30:45.597Z,9.60
2022-10-05T23:33:20.880Z,9.27
2022-10-05T23:36:12.466Z,9.75
2022-10-05T23:38:42.474Z,9.63
2022-10-05T23:41:15.993Z,9.23
2022-10-05T23:43:45.960Z,9.02
2022-10-05T23:46:16.347Z,8.95
2022-10-05T23:48:50.439Z,9.68
2022-10-05T23:51:23.635Z,9.75
2022-10-05T23:53:53.764Z,10.45
2022-10-05T23:56:21.919Z,10.70
2022-10-05T23:58:49.923Z,9.93
